createdAt,value
2017-10-12T00:01:24.024Z,77.54
2017-10-12T00:03:52.326Z,77.49
2017-10-12T00:06:20.625Z,77.49
2017-10-12T00:08:48.941Z,77.55
2017-10-12T00:11:18.013Z,77.54
2017-10-12T00:13:46.319Z,77.63
2017-10-12T00:16:15.388Z,77.70
2017-10-12T00:18:43.685Z,78.07
2017-10-12T00:21:12.793Z,78.22
2017-10-12T00:23:41.093Z,78.40
2017-10-12T00:26:09.390Z,78.86
2017-10-12T00:28:37.701Z,79.15
2017-10-12T00:31:06.773Z,79.50
2017-10-12T00:33:35.127Z,79.90
2017-10-12T00:36:03.426Z,79.91
2017-10-12T00:38:31.745Z,79.47
2017-10-12T00:41:00.829Z,79.29
2017-10-12T00:43:29.257Z,79.20
2017-10-12T00:45:57.553Z,79.85
2017-10-12T00:48:25.849Z,80.43
2017-10-12T00:50:54.181Z,80.80
2017-10-12T00:53:22.468Z,81.11
2017-10-12T00:55:50.787Z,81.42
2017-10-12T00:58:19.853Z,81.65
2017-10-12T01:00:48.165Z,81.96
2017-10-12T01:03:17.271Z,82.12
2017-10-12T01:05:46.394Z,82.26
2017-10-12T01:08:14.685Z,82.40
2017-10-12T01:10:43.024Z,82.20
2017-10-12T01:13:12.089Z,82.34
2017-10-12T01:15:40.385Z,82.12
2017-10-12T01:18:09.465Z,81.98
2017-10-12T01:20:37.769Z,81.65
2017-10-12T01:23:06.837Z,81.14
2017-10-12T01:25:35.162Z,80.71
2017-10-12T01:28:03.468Z,80.48
2017-10-12T01:30:31.797Z,80.24
2017-10-12T01:33:00.880Z,79.85
2017-10-12T01:35:29.981Z,79.75
2017-10-12T01:37:59.063Z,79.76
2017-10-12T01:40:27.386Z,79.73
2017-10-12T01:42:55.681Z,79.46
2017-10-12T01:45:23.985Z,79.25
2017-10-12T01:47:52.296Z,79.16
2017-10-12T01:50:20.609Z,79.19
2017-10-12T01:52:48.901Z,79.22
2017-10-12T01:55:17.244Z,79.33
2017-10-12T01:57:45.547Z,79.71
2017-10-12T02:00:13.845Z,80.58
2017-10-12T02:02:42.167Z,80.91
2017-10-12T02:05:10.456Z,81.36
2017-10-12T02:07:38.766Z,81.73
2017-10-12T02:10:07.077Z,81.95
2017-10-12T02:12:36.144Z,82.30
2017-10-12T02:15:04.434Z,82.69
2017-10-12T02:17:32.757Z,82.79
2017-10-12T02:20:01.351Z,82.67
2017-10-12T02:22:29.685Z,82.73
2017-10-12T02:24:58.770Z,82.79
2017-10-12T02:27:27.076Z,82.86
2017-10-12T02:29:55.384Z,82.79
2017-10-12T02:32:23.686Z,82.61
2017-10-12T02:34:51.995Z,82.23
2017-10-12T02:37:21.067Z,81.96
2017-10-12T02:39:49.379Z,82.03
2017-10-12T02:42:17.678Z,82.12
2017-10-12T02:44:45.990Z,82.09
2017-10-12T02:47:14.293Z,81.86
2017-10-12T02:49:43.370Z,81.43
2017-10-12T02:52:11.695Z,81.55
2017-10-12T02:54:40.005Z,81.46
2017-10-12T02:57:08.326Z,81.60
2017-10-12T02:59:37.402Z,81.52
2017-10-12T03:02:05.717Z,81.62
2017-10-12T03:04:34.022Z,81.60
2017-10-12T03:07:02.346Z,81.79
2017-10-12T03:09:31.409Z,81.42
2017-10-12T03:11:59.753Z,81.75
2017-10-12T03:14:28.062Z,81.83
2017-10-12T03:16:56.384Z,81.66
2017-10-12T03:19:25.462Z,81.53
2017-10-12T03:21:54.534Z,81.23
2017-10-12T03:24:22.850Z,81.00
2017-10-12T03:26:51.913Z,80.75
2017-10-12T03:29:20.222Z,80.66
2017-10-12T03:31:49.318Z,80.75
2017-10-12T03:34:18.459Z,80.44
2017-10-12T03:36:46.763Z,80.12
2017-10-12T03:39:15.073Z,79.99
2017-10-12T03:41:44.165Z,79.65
2017-10-12T03:44:13.230Z,79.23
2017-10-12T03:46:41.550Z,79.01
2017-10-12T03:49:09.846Z,79.03
2017-10-12T03:51:38.155Z,78.84
2017-10-12T03:54:06.464Z,79.21
2017-10-12T03:56:35.546Z,79.73
2017-10-12T03:59:04.620Z,80.53
2017-10-12T04:01:32.936Z,81.01
2017-10-12T04:04:02.011Z,80.73
2017-10-12T04:06:31.121Z,80.39
2017-10-12T04:09:00.236Z,80.50
2017-10-12T04:11:28.594Z,80.99
2017-10-12T04:13:57.665Z,80.72
2017-10-12T04:16:25.974Z,80.24
2017-10-12T04:18:54.306Z,80.51
2017-10-12T04:21:22.636Z,80.06
2017-10-12T04:23:50.962Z,80.37
2017-10-12T04:26:19.266Z,79.97
2017-10-12T04:28:48.356Z,79.83
2017-10-12T04:31:17.431Z,79.62
2017-10-12T04:33:45.754Z,79.57
2017-10-12T04:36:14.058Z,79.55
2017-10-12T04:38:42.379Z,79.27
2017-10-12T04:41:10.701Z,79.68
2017-10-12T04:43:39.007Z,80.16
2017-10-12T04:46:07.325Z,80.95
2017-10-12T04:48:36.396Z,81.82
2017-10-12T04:51:05.561Z,82.98
2017-10-12T04:53:33.877Z,83.89
2017-10-12T04:56:02.194Z,84.28
2017-10-12T04:58:30.520Z,84.51
2017-10-12T05:00:58.857Z,85.08
2017-10-12T05:03:27.165Z,85.68
2017-10-12T05:05:55.469Z,85.91
2017-10-12T05:08:23.823Z,86.21
2017-10-12T05:10:52.134Z,86.58
2017-10-12T05:13:21.242Z,86.34
2017-10-12T05:15:50.344Z,87.00
2017-10-12T05:18:19.448Z,87.16
2017-10-12T05:20:47.781Z,87.09
2017-10-12T05:23:16.138Z,87.07
2017-10-12T05:25:44.441Z,86.46
2017-10-12T05:28:12.746Z,85.63
2017-10-12T05:30:41.849Z,85.40
2017-10-12T05:33:10.154Z,85.05
2017-10-12T05:35:38.493Z,85.02
2017-10-12T05:38:07.568Z,84.52
2017-10-12T05:40:35.887Z,84.03
2017-10-12T05:43:04.189Z,83.71
2017-10-12T05:45:32.516Z,83.25
2017-10-12T05:48:01.582Z,82.85
2017-10-12T05:50:29.919Z,82.79
2017-10-12T05:52:58.238Z,82.46
2017-10-12T05:55:26.540Z,81.97
2017-10-12T05:57:55.623Z,80.64
2017-10-12T06:00:23.930Z,79.53
2017-10-12T06:02:52.243Z,79.01
2017-10-12T06:05:20.553Z,79.55
2017-10-12T06:07:48.871Z,79.81
2017-10-12T06:10:17.170Z,80.10
2017-10-12T06:12:45.490Z,79.94
2017-10-12T06:15:13.794Z,79.85
2017-10-12T06:17:42.099Z,79.69
2017-10-12T06:20:10.413Z,80.43
2017-10-12T06:22:38.754Z,80.22
2017-10-12T06:25:07.060Z,80.70
2017-10-12T06:27:35.361Z,80.41
2017-10-12T06:30:04.437Z,80.55
2017-10-12T06:32:32.750Z,80.08
2017-10-12T06:35:01.062Z,79.97
2017-10-12T06:37:29.369Z,78.91
2017-10-12T06:39:57.674Z,79.25
2017-10-12T06:42:26.746Z,78.81
2017-10-12T06:44:55.065Z,78.04
2017-10-12T06:47:23.366Z,78.13
2017-10-12T06:49:51.726Z,77.72
2017-10-12T06:52:20.030Z,77.32
2017-10-12T06:54:48.357Z,76.84
2017-10-12T06:57:16.669Z,76.17
2017-10-12T06:59:44.970Z,76.53
2017-10-12T07:02:13.286Z,76.93
2017-10-12T07:04:42.364Z,76.34
2017-10-12T07:07:11.477Z,75.90
2017-10-12T07:09:40.547Z,74.67
2017-10-12T07:12:08.850Z,73.51
2017-10-12T07:14:37.930Z,73.79
2017-10-12T07:17:07.007Z,74.40
2017-10-12T07:19:35.350Z,73.81
2017-10-12T07:22:03.661Z,74.07
2017-10-12T07:24:31.970Z,75.40
2017-10-12T07:27:01.050Z,74.26
2017-10-12T07:29:29.350Z,74.38
2017-10-12T07:31:58.591Z,74.19
2017-10-12T07:34:26.902Z,73.99
2017-10-12T07:36:55.201Z,74.02
2017-10-12T07:39:23.515Z,72.78
2017-10-12T07:41:51.815Z,72.51
2017-10-12T07:44:20.161Z,71.75
2017-10-12T07:46:48.469Z,70.04
2017-10-12T07:49:16.782Z,70.77
2017-10-12T07:51:45.858Z,71.01
2017-10-12T07:54:14.156Z,70.83
2017-10-12T07:56:43.262Z,70.14
2017-10-12T07:59:11.576Z,68.74
2017-10-12T08:01:39.882Z,67.20
2017-10-12T08:04:08.194Z,66.25
2017-10-12T08:06:36.519Z,65.33
2017-10-12T08:09:04.883Z,64.30
2017-10-12T08:11:33.217Z,65.30
2017-10-12T08:14:02.294Z,64.61
2017-10-12T08:16:31.397Z,64.12
2017-10-12T08:19:00.479Z,64.86
2017-10-12T08:21:28.825Z,64.69
2017-10-12T08:23:57.133Z,64.60
2017-10-12T08:26:25.458Z,63.96
2017-10-12T08:28:53.782Z,63.28
2017-10-12T08:31:22.103Z,63.26
2017-10-12T08:33:50.450Z,63.08
2017-10-12T08:36:19.526Z,62.19
2017-10-12T08:38:47.829Z,62.12
2017-10-12T08:41:16.906Z,61.46
2017-10-12T08:43:45.210Z,60.51
2017-10-12T08:46:14.327Z,61.10
2017-10-12T08:48:42.638Z,61.13
2017-10-12T08:51:10.946Z,61.62
2017-10-12T08:53:39.262Z,60.42
2017-10-12T08:56:07.569Z,59.65
2017-10-12T08:58:35.890Z,59.86
2017-10-12T09:01:04.962Z,59.62
2017-10-12T09:03:33.270Z,58.56
2017-10-12T09:06:01.598Z,57.69
2017-10-12T09:08:29.900Z,56.96
2017-10-12T09:10:58.251Z,57.27
2017-10-12T09:13:26.558Z,56.70
2017-10-12T09:15:54.866Z,57.08
2017-10-12T09:18:23.197Z,56.86
2017-10-12T09:20:51.533Z,58.23
2017-10-12T09:23:19.878Z,58.94
2017-10-12T09:25:48.955Z,59.39
2017-10-12T09:28:17.262Z,58.82
2017-10-12T09:30:45.584Z,58.34
2017-10-12T09:33:14.657Z,58.00
2017-10-12T09:35:42.996Z,57.27
2017-10-12T09:38:12.067Z,53.60
2017-10-12T09:40:40.422Z,52.36
2017-10-12T09:43:08.734Z,54.25
2017-10-12T09:45:37.046Z,50.11
2017-10-12T09:48:05.386Z,51.96
2017-10-12T09:50:33.686Z,52.66
2017-10-12T09:53:02.762Z,54.74
2017-10-12T09:55:31.117Z,52.39
2017-10-12T09:57:59.427Z,51.99
2017-10-12T10:00:28.553Z,55.78
2017-10-12T10:02:56.874Z,56.88
2017-10-12T10:05:25.187Z,57.68
2017-10-12T10:07:53.522Z,54.87
2017-10-12T10:10:21.827Z,52.37
2017-10-12T10:12:50.146Z,54.59
2017-10-12T10:15:18.455Z,58.77
2017-10-12T10:17:46.807Z,58.50
2017-10-12T10:20:15.114Z,59.50
2017-10-12T10:22:43.438Z,58.31
2017-10-12T10:25:12.543Z,59.48
2017-10-12T10:27:40.854Z,59.38
2017-10-12T10:30:09.162Z,58.51
2017-10-12T10:32:37.466Z,57.68
2017-10-12T10:35:06.553Z,55.59
2017-10-12T10:37:35.634Z,54.30
2017-10-12T10:40:04.718Z,55.15
2017-10-12T10:42:33.031Z,54.48
2017-10-12T10:45:01.351Z,54.14
2017-10-12T10:47:29.667Z,54.71
2017-10-12T10:49:58.753Z,54.81
2017-10-12T10:52:27.054Z,55.91
2017-10-12T10:54:55.374Z,56.44
2017-10-12T10:57:23.675Z,57.16
2017-10-12T10:59:52.027Z,58.86
2017-10-12T11:02:21.286Z,59.64
2017-10-12T11:04:50.349Z,60.70
2017-10-12T11:07:18.658Z,60.48
2017-10-12T11:09:47.726Z,60.68
2017-10-12T11:12:16.061Z,61.25
2017-10-12T11:14:44.375Z,61.30
2017-10-12T11:17:12.686Z,60.94
2017-10-12T11:19:41.766Z,60.64
2017-10-12T11:22:10.855Z,60.66
2017-10-12T11:24:39.926Z,61.41
2017-10-12T11:27:08.253Z,60.78
2017-10-12T11:29:36.561Z,59.54
2017-10-12T11:32:04.874Z,58.21
2017-10-12T11:34:33.190Z,56.36
2017-10-12T11:37:01.514Z,55.16
2017-10-12T11:39:29.823Z,55.28
2017-10-12T11:41:58.940Z,55.39
2017-10-12T11:44:27.245Z,58.54
2017-10-12T11:46:55.578Z,56.38
2017-10-12T11:49:24.655Z,54.66
2017-10-12T11:51:52.978Z,52.92
2017-10-12T11:54:21.290Z,53.15
2017-10-12T11:56:49.597Z,54.40
2017-10-12T11:59:18.673Z,54.18
2017-10-12T12:01:46.976Z,54.19
2017-10-12T12:04:16.050Z,53.51
2017-10-12T12:06:44.362Z,53.55
2017-10-12T12:09:12.669Z,53.12
2017-10-12T12:11:40.970Z,53.92
2017-10-12T12:14:09.286Z,54.29
2017-10-12T12:16:38.353Z,52.42
2017-10-12T12:19:06.690Z,53.39
2017-10-12T12:21:34.994Z,53.44
2017-10-12T12:24:03.298Z,53.51
2017-10-12T12:26:32.398Z,52.37
2017-10-12T12:29:01.466Z,51.93
2017-10-12T12:31:29.782Z,52.39
2017-10-12T12:33:58.846Z,52.12
2017-10-12T12:36:27.170Z,51.32
2017-10-12T12:38:55.487Z,50.83
2017-10-12T12:41:23.807Z,50.00
2017-10-12T12:43:52.886Z,49.54
2017-10-12T12:46:21.975Z,49.33
2017-10-12T12:48:50.302Z,51.13
2017-10-12T12:51:18.629Z,53.41
2017-10-12T12:53:46.945Z,52.64
2017-10-12T12:56:15.254Z,51.87
2017-10-12T12:58:43.550Z,51.43
2017-10-12T13:01:11.945Z,49.98
2017-10-12T13:03:40.258Z,49.42
2017-10-12T13:06:08.562Z,49.89
2017-10-12T13:08:36.882Z,50.47
2017-10-12T13:11:05.956Z,50.18
2017-10-12T13:13:34.282Z,51.42
2017-10-12T13:16:02.587Z,52.51
2017-10-12T13:18:30.924Z,51.02
2017-10-12T13:20:59.995Z,51.99
2017-10-12T13:23:28.320Z,52.01
2017-10-12T13:25:56.625Z,50.78
2017-10-12T13:28:24.941Z,50.73
2017-10-12T13:30:53.250Z,51.16
2017-10-12T13:33:21.559Z,50.87
2017-10-12T13:35:49.875Z,50.94
2017-10-12T13:38:18.979Z,51.11
2017-10-12T13:40:47.298Z,50.95
2017-10-12T13:43:15.606Z,50.83
2017-10-12T13:45:43.931Z,50.16
2017-10-12T13:48:12.230Z,49.29
2017-10-12T13:50:41.311Z,48.42
2017-10-12T13:53:09.617Z,49.66
2017-10-12T13:55:37.979Z,50.02
2017-10-12T13:58:06.318Z,50.37
2017-10-12T14:00:34.631Z,50.15
2017-10-12T14:03:02.942Z,49.55
2017-10-12T14:05:31.255Z,48.94
2017-10-12T14:07:59.571Z,49.69
2017-10-12T14:10:27.886Z,50.92
2017-10-12T14:12:56.995Z,51.95
2017-10-12T14:15:26.062Z,51.13
2017-10-12T14:17:54.369Z,51.29
2017-10-12T14:20:23.448Z,53.14
2017-10-12T14:22:52.522Z,52.14
2017-10-12T14:25:20.846Z,52.65
2017-10-12T14:27:49.164Z,51.86
2017-10-12T14:30:17.506Z,51.99
2017-10-12T14:32:45.818Z,52.09
2017-10-12T14:35:14.133Z,51.93
2017-10-12T14:37:43.217Z,52.30
2017-10-12T14:40:11.534Z,53.13
2017-10-12T14:42:39.848Z,53.47
2017-10-12T14:45:08.170Z,55.07
2017-10-12T14:47:37.273Z,54.34
2017-10-12T14:50:05.589Z,54.80
2017-10-12T14:52:33.894Z,54.70
2017-10-12T14:55:02.222Z,54.65
2017-10-12T14:57:30.523Z,54.76
2017-10-12T14:59:58.845Z,54.16
2017-10-12T15:02:27.941Z,54.29
2017-10-12T15:04:57.059Z,54.80
2017-10-12T15:07:25.363Z,55.32
2017-10-12T15:09:53.718Z,54.83
2017-10-12T15:12:22.038Z,55.16
2017-10-12T15:14:50.347Z,55.77
2017-10-12T15:17:19.444Z,55.41
2017-10-12T15:19:48.523Z,55.96
2017-10-12T15:22:16.862Z,55.83
2017-10-12T15:24:45.162Z,56.47
2017-10-12T15:27:13.476Z,56.78
2017-10-12T15:29:42.575Z,57.05
2017-10-12T15:32:10.883Z,57.82
2017-10-12T15:34:39.203Z,58.21
2017-10-12T15:37:07.506Z,58.59
2017-10-12T15:42:04.920Z,59.16
2017-10-12T15:44:33.233Z,59.66
2017-10-12T15:47:01.550Z,60.56
2017-10-12T15:49:29.858Z,60.98
2017-10-12T15:51:58.174Z,61.03
2017-10-12T15:54:27.307Z,61.67
2017-10-12T15:56:55.661Z,61.54
2017-10-12T15:59:24.791Z,61.37
2017-10-12T16:01:53.163Z,61.65
2017-10-12T16:04:21.528Z,61.96
2017-10-12T16:06:49.838Z,62.19
2017-10-12T16:09:18.163Z,62.80
2017-10-12T16:11:47.243Z,63.46
2017-10-12T16:14:15.584Z,63.63
2017-10-12T16:16:43.908Z,64.30
2017-10-12T16:19:12.984Z,64.79
2017-10-12T16:21:41.303Z,65.36
2017-10-12T16:24:09.616Z,65.57
2017-10-12T16:26:37.938Z,66.32
2017-10-12T16:29:07.018Z,66.76
2017-10-12T16:31:35.322Z,67.16
2017-10-12T16:34:04.414Z,67.71
2017-10-12T16:36:33.494Z,68.41
2017-10-12T16:39:01.826Z,68.78
2017-10-12T16:41:30.146Z,68.85
2017-10-12T16:43:58.490Z,68.99
2017-10-12T16:46:26.794Z,68.72
2017-10-12T16:48:55.099Z,68.73
2017-10-12T16:51:23.418Z,69.49
2017-10-12T16:53:51.721Z,69.18
2017-10-12T16:56:20.038Z,69.54
2017-10-12T16:58:48.346Z,69.90
2017-10-12T17:01:16.698Z,70.03
2017-10-12T17:03:45.011Z,70.11
2017-10-12T17:06:13.319Z,70.14
2017-10-12T17:08:41.643Z,70.24
2017-10-12T17:11:09.958Z,70.78
2017-10-12T17:13:38.298Z,70.63
2017-10-12T17:16:06.606Z,70.06
2017-10-12T17:18:34.910Z,70.41
2017-10-12T17:21:03.229Z,70.56
2017-10-12T17:25:59.915Z,70.02
2017-10-12T17:28:28.218Z,70.20
2017-10-12T17:30:56.541Z,70.24
2017-10-12T17:33:24.866Z,70.26
2017-10-12T17:35:53.170Z,70.64
2017-10-12T17:38:22.274Z,71.06
2017-10-12T17:40:50.587Z,71.56
2017-10-12T17:43:18.894Z,71.82
2017-10-12T17:45:47.211Z,72.36
2017-10-12T17:48:15.530Z,72.63
2017-10-12T17:50:43.856Z,73.04
2017-10-12T17:53:12.162Z,72.84
2017-10-12T17:55:40.473Z,73.29
2017-10-12T17:58:08.792Z,73.01
2017-10-12T18:00:37.097Z,73.03
2017-10-12T18:03:05.433Z,73.20
2017-10-12T18:05:34.502Z,72.67
2017-10-12T18:08:02.811Z,73.00
2017-10-12T18:10:31.144Z,73.12
2017-10-12T18:12:59.446Z,72.99
2017-10-12T18:15:28.553Z,72.76
2017-10-12T18:17:57.634Z,72.76
2017-10-12T18:20:25.943Z,72.99
2017-10-12T18:22:54.260Z,73.25
2017-10-12T18:25:23.334Z,73.21
2017-10-12T18:27:51.683Z,73.35
2017-10-12T18:30:20.754Z,73.46
2017-10-12T18:32:49.062Z,73.64
2017-10-12T18:35:17.386Z,73.79
2017-10-12T18:37:45.778Z,73.71
2017-10-12T18:40:14.115Z,74.04
2017-10-12T18:42:42.422Z,74.24
2017-10-12T18:45:10.738Z,74.29
2017-10-12T18:47:39.824Z,73.99
2017-10-12T18:50:08.910Z,74.18
2017-10-12T18:52:38.043Z,74.41
2017-10-12T18:55:06.357Z,74.68
2017-10-12T18:57:35.473Z,74.41
2017-10-12T19:02:32.308Z,74.55
2017-10-12T19:05:00.657Z,74.71
2017-10-12T19:07:28.961Z,74.93
2017-10-12T19:09:57.902Z,75.15
2017-10-12T19:12:26.978Z,75.34
2017-10-12T19:14:55.282Z,75.39
2017-10-12T19:17:24.379Z,75.66
2017-10-12T19:19:53.450Z,75.81
2017-10-12T19:22:21.753Z,75.92
2017-10-12T19:24:50.831Z,75.69
2017-10-12T19:27:19.926Z,75.95
2017-10-12T19:29:49.031Z,76.17
2017-10-12T19:32:18.166Z,76.50
2017-10-12T19:34:46.486Z,76.89
2017-10-12T19:37:14.802Z,77.03
2017-10-12T19:39:43.112Z,77.26
2017-10-12T19:42:12.226Z,77.17
2017-10-12T19:44:40.526Z,77.19
2017-10-12T19:47:08.863Z,77.41
2017-10-12T19:49:37.170Z,77.79
2017-10-12T19:52:05.491Z,77.71
2017-10-12T19:54:33.831Z,77.78
2017-10-12T19:57:02.143Z,78.26
2017-10-12T19:59:30.455Z,78.29
2017-10-12T20:01:59.547Z,78.45
2017-10-12T20:04:28.638Z,78.50
2017-10-12T20:06:57.750Z,78.97
2017-10-12T20:09:26.049Z,79.12
2017-10-12T20:11:54.354Z,79.27
2017-10-12T20:14:22.677Z,79.18
2017-10-12T20:16:51.007Z,79.53
2017-10-12T20:19:19.374Z,79.41
2017-10-12T20:21:47.696Z,79.34
2017-10-12T20:26:45.879Z,79.60
2017-10-12T20:29:43.788Z,79.59
2017-10-12T20:31:42.579Z,79.57
2017-10-12T20:34:10.893Z,79.49
2017-10-12T20:36:39.204Z,79.43
2017-10-12T20:41:36.604Z,79.61
2017-10-12T20:44:04.965Z,79.69
2017-10-12T20:46:33.275Z,79.45
2017-10-12T20:49:01.589Z,79.38
2017-10-12T20:51:29.913Z,79.31
2017-10-12T20:53:58.217Z,79.11
2017-10-12T20:56:26.559Z,79.07
2017-10-12T20:58:54.874Z,79.11
2017-10-12T21:01:23.207Z,79.10
2017-10-12T21:03:51.515Z,78.96
2017-10-12T21:06:19.835Z,79.01
2017-10-12T21:08:48.168Z,78.86
2017-10-12T21:11:16.490Z,78.91
2017-10-12T21:13:44.801Z,78.76
2017-10-12T21:16:13.117Z,78.61
2017-10-12T21:18:41.426Z,78.36
2017-10-12T21:21:10.538Z,78.38
2017-10-12T21:23:38.849Z,78.71
2017-10-12T21:26:07.167Z,78.54
2017-10-12T21:28:35.485Z,78.75
2017-10-12T21:31:03.804Z,78.68
2017-10-12T21:33:32.154Z,78.96
2017-10-12T21:36:00.476Z,79.13
2017-10-12T21:38:28.781Z,79.54
2017-10-12T21:40:57.878Z,79.60
2017-10-12T21:43:26.182Z,79.86
2017-10-12T21:45:54.532Z,80.18
2017-10-12T21:48:23.603Z,80.11
2017-10-12T21:50:51.916Z,79.99
2017-10-12T21:53:20.237Z,80.26
2017-10-12T21:55:48.550Z,80.51
2017-10-12T21:58:17.658Z,80.82
2017-10-12T22:00:45.974Z,80.97
2017-10-12T22:03:14.270Z,81.21
2017-10-12T22:05:42.585Z,81.21
2017-10-12T22:08:11.655Z,81.41
2017-10-12T22:10:39.974Z,81.65
2017-10-12T22:13:08.307Z,81.60
2017-10-12T22:15:36.618Z,81.71
2017-10-12T22:18:04.964Z,81.65
2017-10-12T22:20:33.275Z,81.58
2017-10-12T22:23:01.634Z,81.59
2017-10-12T22:25:30.713Z,81.34
2017-10-12T22:27:59.022Z,81.28
2017-10-12T22:30:27.354Z,81.29
2017-10-12T22:32:55.653Z,81.24
2017-10-12T22:35:23.974Z,81.27
2017-10-12T22:37:52.285Z,81.20
2017-10-12T22:40:20.590Z,81.29
2017-10-12T22:42:49.669Z,81.30
2017-10-12T22:45:18.000Z,81.27
2017-10-12T22:47:46.346Z,81.03
2017-10-12T22:50:15.419Z,80.99
2017-10-12T22:52:43.722Z,81.06
2017-10-12T22:55:12.818Z,81.14
2017-10-12T22:57:41.890Z,81.33
2017-10-12T23:00:10.218Z,81.27
2017-10-12T23:02:38.527Z,81.29
2017-10-12T23:05:06.839Z,81.56
2017-10-12T23:07:35.180Z,81.80
2017-10-12T23:10:03.541Z,82.15
2017-10-12T23:12:31.874Z,82.11
2017-10-12T23:15:00.956Z,82.22
2017-10-12T23:17:29.281Z,82.28
2017-10-12T23:19:57.603Z,82.13
2017-10-12T23:22:25.906Z,82.26
2017-10-12T23:24:55.036Z,82.32
2017-10-12T23:27:23.348Z,82.29
2017-10-12T23:29:51.654Z,82.42
2017-10-12T23:32:20.737Z,82.48
2017-10-12T23:34:49.037Z,82.54
2017-10-12T23:37:17.372Z,82.66
2017-10-12T23:39:45.678Z,82.79
2017-10-12T23:42:14.766Z,83.16
2017-10-12T23:44:43.850Z,83.24
2017-10-12T23:47:12.158Z,83.33
2017-10-12T23:49:41.261Z,83.22
2017-10-12T23:52:10.411Z,83.00
2017-10-12T23:54:38.719Z,83.29
2017-10-12T23:57:07.845Z,83.20
2017-10-12T23:59:36.158Z,83.30
